createdAt,value
2023-05-25T00:00:19.538Z,85.57
2023-05-25T00:02:46.611Z,85.30
2023-05-25T00:05:14.423Z,85.69
2023-05-25T00:07:44.240Z,85.52
2023-05-25T00:10:12.375Z,85.62
2023-05-25T00:12:39.144Z,85.46
2023-05-25T00:15:07.085Z,85.39
2023-05-25T00:17:33.970Z,85.79
2023-05-25T00:20:09.504Z,85.68
2023-05-25T00:22:37.338Z,85.52
2023-05-25T00:25:05.140Z,85.80
2023-05-25T00:27:31.980Z,86.08
2023-05-25T00:29:59.223Z,86.02
2023-05-25T00:32:26.125Z,86.31
2023-05-25T00:34:54.476Z,86.32
2023-05-25T00:37:21.764Z,86.53
2023-05-25T00:39:48.473Z,86.26
2023-05-25T00:42:15.959Z,86.25
2023-05-25T00:44:43.063Z,86.26
2023-05-25T00:47:11.730Z,86.43
2023-05-25T00:49:38.453Z,86.54
2023-05-25T00:52:05.695Z,86.67
2023-05-25T00:54:33.685Z,86.39
2023-05-25T00:57:06.497Z,86.89
2023-05-25T00:59:41.373Z,86.68
2023-05-25T01:02:11.920Z,86.88
2023-05-25T01:04:45.632Z,86.66
2023-05-25T01:07:18.126Z,86.73
2023-05-25T01:09:46.726Z,87.11
2023-05-25T01:12:16.322Z,87.10
2023-05-25T01:14:43.794Z,87.37
2023-05-25T01:17:11.407Z,87.45
2023-05-25T01:19:41.485Z,87.24
2023-05-25T01:22:32.909Z,87.35
2023-05-25T01:25:05.253Z,87.62
2023-05-25T01:27:40.192Z,87.69
2023-05-25T01:30:12.742Z,88.01
2023-05-25T01:32:42.573Z,88.07
2023-05-25T01:35:11.174Z,87.78
2023-05-25T01:37:47.798Z,87.66
2023-05-25T01:40:15.751Z,87.99
2023-05-25T01:42:42.559Z,88.07
2023-05-25T01:45:11.216Z,87.85
2023-05-25T01:47:47.067Z,87.93
2023-05-25T01:50:31.441Z,87.88
2023-05-25T01:53:11.299Z,87.89
2023-05-25T01:55:52.955Z,87.73
2023-05-25T01:58:20.825Z,87.76
2023-05-25T02:00:51.036Z,87.73
2023-05-25T02:03:18.604Z,87.70
2023-05-25T02:05:46.456Z,87.58
2023-05-25T02:08:14.336Z,87.85
2023-05-25T02:10:41.760Z,87.47
2023-05-25T02:13:08.449Z,87.72
2023-05-25T02:15:35.116Z,87.54
2023-05-25T02:18:01.906Z,87.64
2023-05-25T02:20:28.795Z,87.35
2023-05-25T02:22:55.562Z,87.63
2023-05-25T02:25:22.249Z,87.46
2023-05-25T02:27:49.222Z,87.46
2023-05-25T02:30:15.856Z,87.63
2023-05-25T02:32:42.585Z,87.40
2023-05-25T02:35:11.958Z,87.24
2023-05-25T02:37:39.258Z,87.48
2023-05-25T02:40:06.476Z,86.99
2023-05-25T02:42:33.271Z,87.35
2023-05-25T02:44:59.956Z,87.16
2023-05-25T02:47:26.774Z,87.01
2023-05-25T02:49:53.582Z,86.79
2023-05-25T02:52:21.310Z,86.77
2023-05-25T02:54:48.138Z,87.18
2023-05-25T02:57:14.756Z,86.80
2023-05-25T02:59:41.752Z,87.12
2023-05-25T03:02:08.438Z,86.69
2023-05-25T03:04:37.662Z,86.92
2023-05-25T03:07:04.496Z,87.03
2023-05-25T03:09:31.396Z,87.18
2023-05-25T03:11:58.132Z,87.25
2023-05-25T03:14:25.062Z,87.24
2023-05-25T03:16:53.798Z,87.01
2023-05-25T03:19:21.035Z,87.29
2023-05-25T03:21:47.788Z,87.01
2023-05-25T03:24:14.468Z,87.09
2023-05-25T03:26:43.404Z,86.89
2023-05-25T03:29:12.619Z,86.72
2023-05-25T03:31:39.380Z,86.69
2023-05-25T03:34:07.003Z,86.56
2023-05-25T03:36:34.066Z,86.85
2023-05-25T03:39:01.191Z,86.96
2023-05-25T03:41:27.861Z,86.54
2023-05-25T03:43:54.600Z,87.04
2023-05-25T03:46:23.327Z,86.63
2023-05-25T03:48:50.158Z,87.03
2023-05-25T03:51:16.842Z,86.93
2023-05-25T03:53:43.615Z,86.61
2023-05-25T03:56:10.485Z,86.57
2023-05-25T03:58:37.144Z,86.75
2023-05-25T04:01:05.218Z,86.65
2023-05-25T04:03:33.111Z,86.71
2023-05-25T04:06:00.740Z,86.53
2023-05-25T04:08:28.841Z,86.24
2023-05-25T04:10:56.288Z,86.40
2023-05-25T04:13:23.558Z,86.57
2023-05-25T04:15:51.483Z,86.38
2023-05-25T04:18:19.297Z,86.46
2023-05-25T04:20:46.856Z,86.29
2023-05-25T04:23:13.500Z,86.56
2023-05-25T04:25:42.382Z,86.28
2023-05-25T04:28:09.217Z,85.92
2023-05-25T04:30:36.339Z,85.22
2023-05-25T04:33:03.773Z,85.14
2023-05-25T04:35:31.853Z,84.73
2023-05-25T04:38:00.724Z,84.78
2023-05-25T04:40:28.811Z,84.37
2023-05-25T04:42:56.000Z,84.63
2023-05-25T04:45:24.017Z,84.06
2023-05-25T04:47:51.187Z,84.37
2023-05-25T04:50:18.060Z,84.13
2023-05-25T04:52:44.945Z,84.15
2023-05-25T04:55:11.793Z,83.55
2023-05-25T04:57:38.491Z,83.33
2023-05-25T05:00:06.431Z,82.97
2023-05-25T05:02:34.599Z,83.01
2023-05-25T05:05:01.568Z,82.53
2023-05-25T05:07:29.100Z,81.77
2023-05-25T05:09:55.850Z,80.84
2023-05-25T05:12:22.445Z,80.78
2023-05-25T05:14:50.156Z,79.80
2023-05-25T05:17:17.914Z,79.13
2023-05-25T05:19:45.436Z,78.38
2023-05-25T05:22:13.388Z,78.45
2023-05-25T05:24:40.303Z,77.20
2023-05-25T05:27:09.501Z,75.66
2023-05-25T05:29:37.616Z,74.79
2023-05-25T05:32:04.368Z,74.56
2023-05-25T05:34:31.486Z,74.36
2023-05-25T05:37:00.192Z,74.65
2023-05-25T05:39:27.508Z,74.67
2023-05-25T05:41:55.132Z,74.61
2023-05-25T05:44:24.633Z,74.10
2023-05-25T05:46:53.074Z,73.93
2023-05-25T05:49:19.773Z,72.78
2023-05-25T05:51:46.513Z,71.51
2023-05-25T05:54:13.101Z,69.89
2023-05-25T05:56:40.280Z,69.21
2023-05-25T05:59:07.522Z,68.91
2023-05-25T06:01:34.529Z,69.44
2023-05-25T06:04:01.807Z,69.91
2023-05-25T06:06:29.069Z,70.75
2023-05-25T06:08:55.752Z,71.09
2023-05-25T06:11:22.541Z,71.50
2023-05-25T06:13:49.218Z,71.27
2023-05-25T06:16:15.857Z,71.24
2023-05-25T06:18:42.512Z,70.81
2023-05-25T06:21:10.673Z,70.97
2023-05-25T06:23:37.252Z,70.93
2023-05-25T06:26:05.803Z,71.13
2023-05-25T06:28:32.910Z,70.07
2023-05-25T06:30:59.688Z,68.07
2023-05-25T06:33:26.580Z,67.63
2023-05-25T06:35:58.301Z,67.54
2023-05-25T06:38:25.196Z,67.51
2023-05-25T06:40:51.909Z,67.67
2023-05-25T06:43:18.926Z,67.26
2023-05-25T06:45:46.339Z,65.33
2023-05-25T06:48:13.467Z,64.38
2023-05-25T06:50:40.541Z,63.87
2023-05-25T06:53:07.392Z,64.43
2023-05-25T06:55:34.850Z,64.62
2023-05-25T06:58:01.613Z,64.69
2023-05-25T07:00:31.065Z,64.69
2023-05-25T07:02:57.873Z,64.83
2023-05-25T07:05:24.753Z,65.31
2023-05-25T07:07:51.558Z,65.57
2023-05-25T07:10:18.480Z,66.03
2023-05-25T07:12:45.123Z,66.84
2023-05-25T07:15:13.326Z,67.01
2023-05-25T07:17:40.349Z,67.11
2023-05-25T07:20:07.654Z,66.81
2023-05-25T07:22:34.574Z,66.53
2023-05-25T07:25:01.912Z,66.53
2023-05-25T07:27:30.770Z,66.76
2023-05-25T07:29:57.425Z,66.65
2023-05-25T07:32:24.094Z,66.89
2023-05-25T07:34:50.924Z,67.10
2023-05-25T07:37:19.070Z,67.04
2023-05-25T07:39:45.776Z,67.30
2023-05-25T07:42:12.504Z,66.81
2023-05-25T07:44:39.235Z,66.79
2023-05-25T07:47:07.272Z,66.73
2023-05-25T07:49:36.134Z,67.44
2023-05-25T07:52:06.211Z,66.89
2023-05-25T07:54:32.933Z,67.34
2023-05-25T07:56:59.680Z,66.49
2023-05-25T07:59:26.413Z,65.85
2023-05-25T08:01:53.201Z,65.26
2023-05-25T08:04:19.958Z,63.47
2023-05-25T08:06:46.804Z,61.89
2023-05-25T08:09:13.577Z,61.45
2023-05-25T08:11:40.802Z,60.45
2023-05-25T08:14:07.586Z,60.81
2023-05-25T08:16:34.324Z,61.29
2023-05-25T08:19:01.804Z,60.12
2023-05-25T08:21:28.646Z,61.04
2023-05-25T08:23:56.175Z,61.10
2023-05-25T08:28:52.857Z,59.36
2023-05-25T08:31:19.565Z,59.19
2023-05-25T08:33:46.436Z,60.38
2023-05-25T08:36:13.272Z,60.03
2023-05-25T08:38:42.565Z,60.67
2023-05-25T08:41:14.173Z,60.47
2023-05-25T08:43:42.148Z,60.20
2023-05-25T08:46:12.809Z,60.21
2023-05-25T08:48:42.220Z,59.29
2023-05-25T08:51:12.038Z,59.04
2023-05-25T08:53:41.627Z,58.41
2023-05-25T08:56:20.303Z,58.40
2023-05-25T08:59:00.114Z,58.26
2023-05-25T09:01:31.252Z,59.18
2023-05-25T09:04:00.159Z,60.01
2023-05-25T09:06:28.376Z,60.49
2023-05-25T09:08:55.261Z,61.27
2023-05-25T09:11:35.907Z,61.04
2023-05-25T09:14:08.145Z,61.36
2023-05-25T09:16:37.733Z,60.67
2023-05-25T09:19:04.660Z,60.14
2023-05-25T09:21:31.694Z,60.31
2023-05-25T09:24:01.861Z,60.15
2023-05-25T09:26:28.754Z,59.71
2023-05-25T09:28:55.704Z,59.18
2023-05-25T09:31:24.754Z,58.55
2023-05-25T09:33:55.581Z,58.44
2023-05-25T09:36:23.360Z,58.24
2023-05-25T09:38:53.266Z,57.55
2023-05-25T09:41:21.025Z,56.80
2023-05-25T09:46:15.798Z,55.58
2023-05-25T09:48:43.278Z,55.12
2023-05-25T09:51:11.918Z,55.87
2023-05-25T09:53:38.728Z,55.38
2023-05-25T09:56:05.943Z,54.73
2023-05-25T09:58:33.028Z,54.92
2023-05-25T10:03:27.656Z,53.74
2023-05-25T10:05:55.350Z,53.54
2023-05-25T10:08:25.201Z,53.53
2023-05-25T10:10:53.841Z,53.77
2023-05-25T10:13:25.417Z,54.28
2023-05-25T10:15:54.717Z,53.71
2023-05-25T10:18:26.271Z,53.90
2023-05-25T10:21:03.967Z,53.84
2023-05-25T10:23:38.030Z,53.81
2023-05-25T10:26:06.327Z,53.50
2023-05-25T10:28:37.456Z,53.71
2023-05-25T10:31:06.155Z,54.01
2023-05-25T10:33:33.789Z,54.54
2023-05-25T10:38:39.359Z,55.26
2023-05-25T10:41:12.151Z,55.60
2023-05-25T10:43:40.622Z,55.64
2023-05-25T10:46:08.435Z,56.24
2023-05-25T10:48:48.214Z,56.62
2023-05-25T10:51:19.566Z,56.96
2023-05-25T10:53:48.091Z,56.74
2023-05-25T10:56:14.958Z,57.38
2023-05-25T10:58:46.582Z,57.49
2023-05-25T11:01:16.101Z,57.72
2023-05-25T11:03:50.771Z,57.00
2023-05-25T11:06:21.628Z,56.50
2023-05-25T11:09:03.896Z,56.07
2023-05-25T11:11:42.534Z,55.79
2023-05-25T11:14:32.912Z,55.17
2023-05-25T11:17:12.001Z,54.74
2023-05-25T11:19:55.016Z,55.43
2023-05-25T11:22:37.988Z,54.69
2023-05-25T11:25:42.404Z,54.50
2023-05-25T11:28:12.219Z,53.02
2023-05-25T11:30:44.359Z,51.40
2023-05-25T11:33:12.208Z,51.10
2023-05-25T11:35:39.038Z,49.80
2023-05-25T11:38:07.197Z,48.92
2023-05-25T11:40:34.369Z,48.53
2023-05-25T11:43:02.350Z,50.01
2023-05-25T11:45:30.050Z,50.03
2023-05-25T11:47:57.915Z,49.77
2023-05-25T11:50:25.105Z,49.78
2023-05-25T11:52:52.107Z,49.17
2023-05-25T11:55:19.035Z,49.55
2023-05-25T11:57:46.180Z,50.44
2023-05-25T12:00:13.667Z,51.58
2023-05-25T12:02:42.382Z,50.80
2023-05-25T12:05:11.081Z,51.06
2023-05-25T12:07:44.429Z,50.19
2023-05-25T12:10:14.063Z,51.47
2023-05-25T12:12:49.475Z,50.13
2023-05-25T12:15:25.777Z,49.33
2023-05-25T12:17:53.947Z,49.40
2023-05-25T12:20:21.920Z,49.08
2023-05-25T12:22:48.861Z,50.26
2023-05-25T12:25:20.294Z,49.33
2023-05-25T12:27:47.105Z,47.87
2023-05-25T12:30:13.791Z,48.97
2023-05-25T12:33:03.725Z,48.46
2023-05-25T12:35:45.391Z,49.04
2023-05-25T12:38:20.128Z,49.38
2023-05-25T12:40:47.144Z,48.83
2023-05-25T12:43:15.380Z,48.41
2023-05-25T12:45:43.026Z,48.55
2023-05-25T12:48:13.400Z,47.62
2023-05-25T12:50:56.787Z,46.93
2023-05-25T12:53:25.258Z,47.31
2023-05-25T12:56:01.633Z,46.88
2023-05-25T12:58:28.664Z,47.03
2023-05-25T13:00:55.305Z,46.18
2023-05-25T13:03:23.005Z,46.14
2023-05-25T13:05:51.591Z,45.44
2023-05-25T13:08:18.396Z,45.14
2023-05-25T13:10:48.675Z,45.11
2023-05-25T13:13:15.298Z,44.81
2023-05-25T13:15:42.086Z,43.97
2023-05-25T13:18:08.969Z,44.13
2023-05-25T13:20:36.912Z,43.85
2023-05-25T13:23:03.812Z,44.20
2023-05-25T13:25:30.739Z,43.86
2023-05-25T13:28:01.143Z,43.87
2023-05-25T13:30:28.013Z,44.88
2023-05-25T13:32:54.832Z,44.60
2023-05-25T13:35:40.451Z,43.91
2023-05-25T13:38:07.222Z,43.12
2023-05-25T13:40:35.891Z,43.42
2023-05-25T13:43:05.822Z,43.26
2023-05-25T13:45:32.653Z,43.33
2023-05-25T13:47:59.490Z,42.53
2023-05-25T13:50:26.343Z,40.88
2023-05-25T13:52:53.050Z,41.98
2023-05-25T13:55:19.823Z,42.23
2023-05-25T13:57:46.622Z,42.72
2023-05-25T14:00:14.556Z,43.85
2023-05-25T14:02:44.393Z,43.07
2023-05-25T14:05:11.733Z,42.36
2023-05-25T14:07:41.562Z,42.60
2023-05-25T14:10:09.973Z,42.75
2023-05-25T14:12:36.901Z,42.24
2023-05-25T14:15:04.266Z,42.57
2023-05-25T14:17:30.978Z,41.53
2023-05-25T14:19:59.110Z,41.56
2023-05-25T14:22:28.168Z,42.97
2023-05-25T14:24:54.861Z,42.46
2023-05-25T14:27:21.888Z,42.96
2023-05-25T14:29:49.882Z,43.40
2023-05-25T14:32:17.218Z,42.83
2023-05-25T14:34:44.156Z,43.17
2023-05-25T14:37:11.911Z,42.86
2023-05-25T14:39:38.647Z,44.51
2023-05-25T14:42:06.047Z,44.92
2023-05-25T14:44:32.768Z,43.75
2023-05-25T14:46:59.431Z,43.72
2023-05-25T14:49:27.449Z,44.33
2023-05-25T14:51:54.320Z,44.17
2023-05-25T14:56:48.047Z,44.32
2023-05-25T14:59:14.654Z,43.07
2023-05-25T15:01:44.948Z,42.87
2023-05-25T15:04:13.028Z,43.67
2023-05-25T15:06:42.796Z,43.45
2023-05-25T15:09:09.631Z,44.25
2023-05-25T15:11:36.810Z,44.19
2023-05-25T15:14:03.561Z,44.22
2023-05-25T15:16:30.320Z,44.20
2023-05-25T15:18:57.077Z,44.59
2023-05-25T15:21:23.821Z,43.72
2023-05-25T15:23:51.483Z,43.73
2023-05-25T15:26:18.284Z,44.47
2023-05-25T15:28:44.927Z,44.13
2023-05-25T15:31:13.100Z,44.36
2023-05-25T15:33:53.701Z,44.69
2023-05-25T15:36:23.221Z,43.97
2023-05-25T15:38:49.913Z,44.76
2023-05-25T15:41:17.411Z,44.41
2023-05-25T15:43:58.651Z,44.16
2023-05-25T15:46:26.169Z,44.96
2023-05-25T15:48:53.480Z,45.35
2023-05-25T15:51:20.595Z,45.35
2023-05-25T15:53:47.747Z,44.64
2023-05-25T15:56:14.335Z,44.59
2023-05-25T15:58:41.689Z,44.90
2023-05-25T16:01:08.413Z,45.54
2023-05-25T16:03:35.251Z,45.68
2023-05-25T16:06:02.489Z,45.51
2023-05-25T16:08:29.244Z,45.25
2023-05-25T16:10:56.082Z,45.57
2023-05-25T16:13:22.869Z,45.97
2023-05-25T16:15:49.640Z,45.61
2023-05-25T16:18:16.744Z,45.63
2023-05-25T16:20:44.181Z,45.16
2023-05-25T16:23:14.910Z,44.85
2023-05-25T16:25:42.174Z,44.62
2023-05-25T16:28:08.910Z,44.65
2023-05-25T16:30:35.659Z,44.82
2023-05-25T16:33:02.401Z,44.57
2023-05-25T16:35:29.123Z,45.13
2023-05-25T16:37:56.256Z,44.81
2023-05-25T16:40:23.108Z,45.03
2023-05-25T16:42:49.777Z,44.77
2023-05-25T16:45:16.589Z,44.83
2023-05-25T16:47:43.374Z,44.09
2023-05-25T16:50:10.495Z,44.19
2023-05-25T16:52:37.245Z,45.04
2023-05-25T16:55:04.300Z,45.17
2023-05-25T16:57:31.128Z,44.96
2023-05-25T16:59:57.912Z,45.27
2023-05-25T17:02:24.636Z,45.30
2023-05-25T17:04:51.398Z,45.83
2023-05-25T17:07:18.440Z,45.99
2023-05-25T17:09:45.107Z,45.62
2023-05-25T17:12:12.812Z,45.40
2023-05-25T17:14:39.684Z,45.73
2023-05-25T17:17:06.455Z,45.67
2023-05-25T17:19:33.146Z,45.69
2023-05-25T17:22:01.807Z,45.93
2023-05-25T17:24:28.601Z,45.83
2023-05-25T17:26:56.440Z,46.15
2023-05-25T17:29:23.404Z,45.49
2023-05-25T17:31:50.285Z,45.75
2023-05-25T17:34:17.183Z,46.25
2023-05-25T17:36:43.894Z,46.37
2023-05-25T17:39:10.815Z,46.47
2023-05-25T17:41:37.612Z,46.67
2023-05-25T17:44:04.330Z,46.45
2023-05-25T17:46:31.434Z,46.69
2023-05-25T17:48:58.227Z,46.55
2023-05-25T17:51:24.992Z,46.67
2023-05-25T17:53:52.109Z,46.76
2023-05-25T17:56:18.758Z,47.23
2023-05-25T17:58:47.628Z,47.57
2023-05-25T18:01:15.832Z,48.11
2023-05-25T18:03:42.832Z,48.21
2023-05-25T18:06:10.756Z,48.91
2023-05-25T18:08:37.531Z,49.86
2023-05-25T18:11:07.624Z,50.48
2023-05-25T18:13:35.533Z,50.97
2023-05-25T18:16:02.167Z,51.68
2023-05-25T18:18:28.851Z,52.53
2023-05-25T18:20:56.562Z,53.00
2023-05-25T18:23:23.407Z,53.37
2023-05-25T18:25:52.608Z,53.84
2023-05-25T18:28:19.337Z,54.01
2023-05-25T18:30:47.089Z,54.42
2023-05-25T18:33:13.867Z,54.55
2023-05-25T18:35:40.875Z,54.80
2023-05-25T18:38:07.634Z,55.04
2023-05-25T18:40:34.480Z,55.51
2023-05-25T18:43:04.740Z,55.56
2023-05-25T18:45:31.635Z,55.65
2023-05-25T18:48:07.518Z,56.31
2023-05-25T18:50:39.504Z,56.45
2023-05-25T18:53:07.925Z,56.64
2023-05-25T18:55:34.972Z,57.20
2023-05-25T18:58:02.177Z,57.42
2023-05-25T19:00:29.456Z,57.88
2023-05-25T19:02:57.295Z,58.02
2023-05-25T19:05:24.771Z,58.38
2023-05-25T19:07:59.270Z,58.70
2023-05-25T19:10:27.561Z,58.88
2023-05-25T19:12:54.719Z,59.68
2023-05-25T19:15:21.640Z,60.48
2023-05-25T19:17:48.510Z,60.96
2023-05-25T19:20:15.610Z,60.98
2023-05-25T19:22:42.593Z,61.36
2023-05-25T19:25:11.206Z,63.46
2023-05-25T19:27:37.923Z,63.08
2023-05-25T19:30:05.146Z,63.17
2023-05-25T19:32:32.058Z,63.07
2023-05-25T19:34:58.874Z,63.07
2023-05-25T19:37:26.519Z,63.94
2023-05-25T19:39:53.430Z,64.75
2023-05-25T19:42:44.420Z,65.76
2023-05-25T19:45:13.375Z,65.14
2023-05-25T19:47:40.729Z,65.23
2023-05-25T19:50:08.506Z,65.01
2023-05-25T19:52:35.313Z,65.41
2023-05-25T19:55:03.158Z,66.55
2023-05-25T19:57:29.852Z,66.59
2023-05-25T19:59:57.801Z,67.17
2023-05-25T20:02:24.690Z,67.01
2023-05-25T20:04:51.505Z,67.84
2023-05-25T20:07:18.569Z,67.75
2023-05-25T20:09:45.946Z,69.58
2023-05-25T20:12:13.724Z,69.35
2023-05-25T20:14:42.863Z,69.30
2023-05-25T20:17:12.596Z,69.14
2023-05-25T20:19:39.364Z,69.01
2023-05-25T20:22:08.226Z,70.80
2023-05-25T20:24:35.011Z,70.15
2023-05-25T20:27:05.067Z,69.99
2023-05-25T20:29:33.906Z,71.31
2023-05-25T20:32:00.846Z,70.41
2023-05-25T20:34:27.541Z,71.11
2023-05-25T20:36:54.282Z,71.05
2023-05-25T20:39:21.136Z,71.81
2023-05-25T20:41:47.925Z,71.90
2023-05-25T20:44:14.783Z,72.34
2023-05-25T20:46:44.974Z,72.76
2023-05-25T20:49:12.006Z,72.77
2023-05-25T20:51:38.679Z,72.83
2023-05-25T20:54:05.647Z,73.35
2023-05-25T20:56:32.617Z,73.60
2023-05-25T20:58:59.479Z,73.69
2023-05-25T21:01:26.322Z,74.48
2023-05-25T21:03:53.719Z,74.54
2023-05-25T21:06:21.080Z,74.13
2023-05-25T21:08:47.881Z,74.38
2023-05-25T21:11:14.564Z,74.94
2023-05-25T21:13:42.213Z,74.74
2023-05-25T21:16:08.993Z,75.67
2023-05-25T21:18:35.751Z,75.83
2023-05-25T21:21:02.501Z,76.29
2023-05-25T21:23:29.302Z,75.59
2023-05-25T21:25:56.134Z,77.18
2023-05-25T21:28:23.700Z,77.51
2023-05-25T21:30:50.718Z,77.92
2023-05-25T21:33:17.358Z,77.49
2023-05-25T21:35:44.454Z,77.03
2023-05-25T21:38:12.286Z,76.46
2023-05-25T21:40:38.909Z,76.86
2023-05-25T21:43:05.552Z,76.48
2023-05-25T21:45:32.196Z,76.90
2023-05-25T21:47:58.879Z,76.72
2023-05-25T21:50:25.881Z,76.84
2023-05-25T21:52:52.658Z,77.16
2023-05-25T21:55:19.433Z,78.61
2023-05-25T21:57:46.050Z,79.67
2023-05-25T22:00:14.505Z,79.56
2023-05-25T22:02:41.833Z,78.94
2023-05-25T22:05:08.661Z,78.65
2023-05-25T22:07:35.285Z,78.40
2023-05-25T22:10:01.987Z,78.95
2023-05-25T22:12:28.661Z,78.99
2023-05-25T22:14:55.274Z,79.03
2023-05-25T22:17:22.031Z,79.21
2023-05-25T22:19:58.950Z,79.66
2023-05-25T22:22:34.056Z,79.38
2023-05-25T22:25:00.681Z,79.74
2023-05-25T22:27:27.319Z,80.38
2023-05-25T22:29:53.941Z,80.21
2023-05-25T22:32:20.754Z,79.84
2023-05-25T22:34:47.405Z,79.85
2023-05-25T22:37:14.136Z,79.95
2023-05-25T22:39:40.946Z,79.80
2023-05-25T22:42:07.740Z,80.12
2023-05-25T22:44:38.020Z,80.01
2023-05-25T22:47:06.416Z,80.45
2023-05-25T22:49:44.249Z,80.52
2023-05-25T22:52:12.497Z,82.75
2023-05-25T22:54:41.639Z,82.44
2023-05-25T22:57:09.614Z,82.34
2023-05-25T22:59:36.356Z,82.31
2023-05-25T23:02:03.149Z,82.15
2023-05-25T23:04:29.792Z,82.33
2023-05-25T23:06:56.445Z,82.23
2023-05-25T23:09:23.088Z,82.00
2023-05-25T23:11:49.782Z,82.61
2023-05-25T23:14:16.451Z,82.94
2023-05-25T23:16:43.209Z,82.61
2023-05-25T23:19:12.391Z,82.99
2023-05-25T23:21:39.076Z,82.76
2023-05-25T23:24:06.194Z,82.99
2023-05-25T23:26:32.848Z,83.29
2023-05-25T23:28:59.629Z,83.52
2023-05-25T23:31:26.332Z,83.58
2023-05-25T23:33:53.217Z,84.27
2023-05-25T23:36:20.843Z,84.38
2023-05-25T23:38:47.500Z,84.45
2023-05-25T23:41:15.933Z,84.68
2023-05-25T23:43:42.546Z,84.00
2023-05-25T23:46:09.428Z,83.71
2023-05-25T23:48:36.136Z,84.38
2023-05-25T23:51:02.910Z,84.42
2023-05-25T23:53:29.550Z,84.95
2023-05-25T23:55:56.147Z,85.19
2023-05-25T23:58:22.834Z,84.53
